Time;durP1;ratioP1;P1;durP2;ratioP2;P2;SDS_P1;SDS_P2;PMS_P1;PMS_P2;Temp;Humidity;BMP_temperature;BMP_pressure;BME280_temperature;BME280_humidity;BME280_pressure;Samples;Min_cycle;Max_cycle;Signal;HPM_P1;HPM_P2
2023/10/28 05:00:50;;;;;;;2.80;1.30;;;;;;;;;;5763327;23;20503;-70
2023/10/28 05:03:16;;;;;;;4.50;1.53;;;;;;;;;;4999028;28;20451;-70
2023/10/28 05:05:42;;;;;;;7.93;1.50;;;;;;;;;;4999126;28;20976;-70
2023/10/28 05:08:09;;;;;;;4.80;1.70;;;;;;;;;;4998029;28;20430;-71
2023/10/28 05:10:34;;;;;;;4.60;1.50;;;;;;;;;;4995183;28;20446;-71
2023/10/28 05:13:00;;;;;;;4.13;1.60;;;;;;;;;;4994274;28;20419;-71
2023/10/28 05:15:28;;;;;;;2.60;1.30;;;;;;;;;;4994155;28;20501;-72
2023/10/28 05:17:54;;;;;;;5.93;1.80;;;;;;;;;;4994717;28;20419;-71
2023/10/28 05:20:21;;;;;;;4.23;1.43;;;;;;;;;;4993349;28;20434;-71
2023/10/28 05:22:47;;;;;;;5.20;1.73;;;;;;;;;;4993440;28;20491;-71
2023/10/28 05:25:13;;;;;;;3.80;1.60;;;;;;;;;;4993147;28;20415;-71
2023/10/28 05:27:39;;;;;;;6.13;1.60;;;;;;;;;;4993351;28;20403;-72
2023/10/28 05:30:06;;;;;;;1.63;1.53;;;;;;;;;;4993024;28;20403;-71
2023/10/28 05:32:32;;;;;;;3.43;1.40;;;;;;;;;;4993158;28;20434;-71
2023/10/28 05:34:59;;;;;;;2.10;1.70;;;;;;;;;;4975623;28;20426;-71
2023/10/28 05:37:27;;;;;;;3.97;1.43;;;;;;;;;;4993154;28;20419;-71
2023/10/28 05:39:53;;;;;;;4.13;1.50;;;;;;;;;;4991746;28;20418;-71
2023/10/28 05:42:19;;;;;;;3.13;1.47;;;;;;;;;;4992982;28;20438;-70
2023/10/28 05:44:45;;;;;;;7.77;1.33;;;;;;;;;;4992716;28;20926;-70
2023/10/28 05:47:16;;;;;;;7.50;1.70;;;;;;;;;;4992897;28;20423;-70
2023/10/28 05:49:42;;;;;;;1.73;1.50;;;;;;;;;;4992917;28;20411;-70
2023/10/28 05:52:09;;;;;;;2.40;1.30;;;;;;;;;;4974992;28;20529;-71
2023/10/28 05:54:35;;;;;;;4.33;1.90;;;;;;;;;;4992856;28;20415;-70
2023/10/28 05:57:01;;;;;;;5.50;1.50;;;;;;;;;;4992973;28;20412;-71
2023/10/28 05:59:27;;;;;;;4.30;1.40;;;;;;;;;;4992835;28;20502;-71
2023/10/28 06:01:53;;;;;;;4.50;1.80;;;;;;;;;;4992424;28;20470;-71
2023/10/28 06:04:21;;;;;;;3.30;1.53;;;;;;;;;;4992681;28;20921;-71
2023/10/28 06:06:48;;;;;;;4.27;1.60;;;;;;;;;;4992628;28;20435;-71
2023/10/28 06:09:15;;;;;;;2.50;1.60;;;;;;;;;;4992706;28;20782;-71
2023/10/28 06:11:41;;;;;;;7.13;1.80;;;;;;;;;;4992273;28;20522;-72
2023/10/28 06:14:07;;;;;;;8.40;1.63;;;;;;;;;;4992583;28;20856;-71
2023/10/28 06:16:34;;;;;;;3.40;1.40;;;;;;;;;;4992447;28;20414;-71
2023/10/28 06:19:00;;;;;;;2.37;1.40;;;;;;;;;;4992800;28;20423;-71
2023/10/28 06:21:26;;;;;;;4.30;2.13;;;;;;;;;;4991834;28;20569;-71
2023/10/28 06:23:52;;;;;;;4.57;1.53;;;;;;;;;;4992239;28;20569;-71
2023/10/28 06:26:19;;;;;;;3.90;1.30;;;;;;;;;;4992396;28;20910;-71
2023/10/28 06:28:47;;;;;;;1.43;1.33;;;;;;;;;;4992308;28;20490;-72
2023/10/28 06:31:14;;;;;;;14.93;2.10;;;;;;;;;;4991713;28;20934;-71
2023/10/28 06:33:40;;;;;;;4.57;1.77;;;;;;;;;;4992401;28;20411;-71
2023/10/28 06:36:07;;;;;;;4.13;1.67;;;;;;;;;;4992269;28;20522;-71
2023/10/28 06:38:33;;;;;;;2.33;1.53;;;;;;;;;;4992330;28;20407;-71
2023/10/28 06:40:59;;;;;;;4.97;1.93;;;;;;;;;;4992168;28;20906;-71
2023/10/28 06:43:25;;;;;;;4.43;1.30;;;;;;;;;;4974958;28;20458;-71
2023/10/28 06:45:51;;;;;;;6.10;2.37;;;;;;;;;;4988415;28;20441;-71
2023/10/28 06:48:16;;;;;;;10.03;1.53;;;;;;;;;;4980436;28;20444;-71
2023/10/28 06:50:43;;;;;;;4.27;1.63;;;;;;;;;;4991035;28;20803;-71
2023/10/28 06:53:09;;;;;;;10.40;2.10;;;;;;;;;;4991536;28;20407;-71
2023/10/28 06:55:35;;;;;;;4.63;1.60;;;;;;;;;;4991727;28;20410;-71
2023/10/28 06:58:01;;;;;;;5.10;1.57;;;;;;;;;;4991416;28;20756;-71
2023/10/28 07:00:27;;;;;;;3.83;1.20;;;;;;;;;;4991672;28;20485;-71
2023/10/28 07:02:54;;;;;;;5.63;1.80;;;;;;;;;;4992937;28;20462;-71
2023/10/28 07:05:20;;;;;;;3.77;1.50;;;;;;;;;;4995981;28;20821;-71
2023/10/28 07:07:46;;;;;;;3.40;1.70;;;;;;;;;;4995827;28;20412;-71
2023/10/28 07:10:14;;;;;;;2.27;1.43;;;;;;;;;;4995354;28;20751;-71
2023/10/28 07:12:41;;;;;;;2.70;1.90;;;;;;;;;;4995404;28;20419;-71
2023/10/28 07:15:09;;;;;;;4.70;1.50;;;;;;;;;;4995662;28;20788;-70
2023/10/28 07:17:35;;;;;;;6.70;1.93;;;;;;;;;;4995463;28;20422;-71
2023/10/28 07:20:01;;;;;;;7.13;1.93;;;;;;;;;;4995464;28;20403;-71
2023/10/28 07:22:27;;;;;;;4.37;1.43;;;;;;;;;;4995517;28;20427;-71
2023/10/28 07:24:54;;;;;;;1.97;1.57;;;;;;;;;;4995559;28;20886;-71
2023/10/28 07:27:20;;;;;;;5.23;1.70;;;;;;;;;;4995424;28;20997;-71
2023/10/28 07:29:48;;;;;;;3.30;1.10;;;;;;;;;;4995265;28;20425;-73
2023/10/28 07:32:14;;;;;;;4.87;1.73;;;;;;;;;;4995063;28;20493;-72
2023/10/28 07:34:40;;;;;;;2.40;1.43;;;;;;;;;;4995303;28;20453;-71
2023/10/28 07:37:07;;;;;;;2.90;1.80;;;;;;;;;;4995303;28;20983;-72
2023/10/28 07:39:33;;;;;;;6.30;1.87;;;;;;;;;;4995204;28;20918;-73
2023/10/28 07:41:59;;;;;;;2.83;1.10;;;;;;;;;;4994930;28;20427;-73
2023/10/28 07:44:25;;;;;;;3.77;1.60;;;;;;;;;;4995004;28;20466;-72
2023/10/28 07:46:51;;;;;;;5.50;1.83;;;;;;;;;;4995011;28;20413;-72
2023/10/28 07:49:18;;;;;;;7.60;1.77;;;;;;;;;;4994961;28;20411;-72
2023/10/28 07:51:44;;;;;;;3.63;2.20;;;;;;;;;;4994637;28;20431;-72
2023/10/28 07:54:14;;;;;;;5.17;1.97;;;;;;;;;;4994834;28;20837;-72
2023/10/28 07:56:41;;;;;;;8.00;1.73;;;;;;;;;;4994656;28;20418;-72
2023/10/28 07:59:08;;;;;;;5.27;1.53;;;;;;;;;;4994632;28;20954;-72
2023/10/28 08:01:35;;;;;;;3.90;1.53;;;;;;;;;;4994329;28;20541;-72
2023/10/28 08:04:01;;;;;;;5.20;1.53;;;;;;;;;;4990415;28;20921;-72
2023/10/28 08:06:27;;;;;;;6.57;1.90;;;;;;;;;;4982943;28;20419;-73
2023/10/28 08:08:53;;;;;;;6.13;1.40;;;;;;;;;;4994352;28;20423;-72
2023/10/28 08:11:20;;;;;;;6.57;1.50;;;;;;;;;;4994314;28;20894;-72
2023/10/28 08:13:48;;;;;;;6.00;1.23;;;;;;;;;;4994524;28;20502;-73
2023/10/28 08:16:18;;;;;;;7.20;1.90;;;;;;;;;;4976688;28;20479;-72
2023/10/28 08:18:44;;;;;;;5.17;1.83;;;;;;;;;;4994464;28;20497;-72
2023/10/28 08:21:12;;;;;;;4.90;1.73;;;;;;;;;;4994017;28;20514;-73
2023/10/28 08:23:38;;;;;;;8.23;1.97;;;;;;;;;;4994231;28;20458;-73
2023/10/28 08:26:06;;;;;;;3.83;1.63;;;;;;;;;;4994370;28;20683;-72
2023/10/28 08:28:32;;;;;;;2.57;1.50;;;;;;;;;;4976898;28;20411;-72
2023/10/28 08:30:58;;;;;;;5.70;2.00;;;;;;;;;;4994051;28;20933;-73
2023/10/28 08:33:24;;;;;;;2.67;1.50;;;;;;;;;;4984191;28;20447;-72
2023/10/28 08:35:51;;;;;;;3.90;1.57;;;;;;;;;;4984601;28;20970;-72
2023/10/28 08:38:17;;;;;;;3.07;2.00;;;;;;;;;;4984581;28;20423;-75
2023/10/28 08:40:47;;;;;;;5.10;1.80;;;;;;;;;;4994032;28;20461;-74
2023/10/28 08:43:22;;;;;;;3.47;1.80;;;;;;;;;;4993154;28;20577;-72
2023/10/28 08:45:49;;;;;;;7.93;1.90;;;;;;;;;;4993519;28;20505;-72
2023/10/28 08:48:15;;;;;;;4.90;1.97;;;;;;;;;;4993899;28;20886;-73
2023/10/28 08:50:41;;;;;;;8.60;2.20;;;;;;;;;;4993754;28;20862;-72
2023/10/28 08:53:08;;;;;;;3.00;1.30;;;;;;;;;;4995070;28;20910;-72
2023/10/28 08:55:37;;;;;;;9.40;3.90;;;;;;;;;;4993772;28;20426;-76
2023/10/28 08:58:03;;;;;;;4.63;1.73;;;;;;;;;;4993728;28;20411;-73
2023/10/28 09:00:30;;;;;;;2.53;1.40;;;;;;;;;;4993328;28;20493;-72
2023/10/28 09:02:57;;;;;;;4.67;2.13;;;;;;;;;;4993409;28;20779;-73
2023/10/28 09:05:23;;;;;;;7.10;2.00;;;;;;;;;;4993690;28;20494;-72
2023/10/28 09:07:49;;;;;;;4.37;1.83;;;;;;;;;;4980278;28;20459;-72
2023/10/28 09:10:15;;;;;;;3.93;1.50;;;;;;;;;;4973774;28;20500;-72
2023/10/28 09:12:43;;;;;;;5.13;1.87;;;;;;;;;;4973996;28;20407;-73
2023/10/28 09:15:11;;;;;;;6.50;2.40;;;;;;;;;;4992505;28;20431;-72
2023/10/28 09:17:39;;;;;;;5.03;1.67;;;;;;;;;;4993367;28;20423;-72
2023/10/28 09:20:09;;;;;;;3.63;1.57;;;;;;;;;;4993046;28;20866;-73
2023/10/28 09:22:37;;;;;;;5.10;1.73;;;;;;;;;;4993555;28;20764;-73
2023/10/28 09:25:03;;;;;;;4.30;1.33;;;;;;;;;;4992430;28;20902;-73
2023/10/28 09:27:29;;;;;;;3.90;1.80;;;;;;;;;;4992863;28;20419;-72
2023/10/28 09:30:03;;;;;;;4.23;1.63;;;;;;;;;;4975079;28;20431;-72
2023/10/28 09:32:31;;;;;;;8.90;2.20;;;;;;;;;;4992815;28;20423;-72
2023/10/28 09:34:57;;;;;;;6.10;1.70;;;;;;;;;;4993137;28;21030;-73
2023/10/28 09:37:23;;;;;;;3.43;1.63;;;;;;;;;;4993098;28;20829;-73
2023/10/28 09:39:50;;;;;;;4.57;1.67;;;;;;;;;;4992700;28;20411;-72
2023/10/28 09:42:16;;;;;;;3.37;1.73;;;;;;;;;;4992865;28;21035;-73
2023/10/28 09:44:44;;;;;;;4.43;1.53;;;;;;;;;;4992787;28;20481;-73
2023/10/28 09:47:13;;;;;;;3.70;1.40;;;;;;;;;;4992650;28;20417;-72
2023/10/28 09:49:41;;;;;;;9.60;2.27;;;;;;;;;;4992597;28;20403;-73
2023/10/28 09:52:07;;;;;;;8.30;1.93;;;;;;;;;;4991736;28;20447;-73
2023/10/28 09:54:35;;;;;;;2.53;1.50;;;;;;;;;;4992365;28;20417;-72
2023/10/28 09:57:01;;;;;;;6.87;2.17;;;;;;;;;;4975086;28;20930;-73
2023/10/28 09:59:29;;;;;;;6.10;1.93;;;;;;;;;;4992606;28;20443;-73
2023/10/28 10:02:06;;;;;;;8.20;2.37;;;;;;;;;;4992002;28;20463;-73
2023/10/28 10:04:36;;;;;;;2.97;1.63;;;;;;;;;;4992394;28;20466;-72
2023/10/28 10:07:02;;;;;;;2.77;1.63;;;;;;;;;;4992693;28;20411;-72
2023/10/28 10:09:28;;;;;;;3.50;1.40;;;;;;;;;;4993172;28;20493;-72
2023/10/28 10:11:57;;;;;;;7.03;2.07;;;;;;;;;;4992685;28;20465;-72
2023/10/28 10:14:24;;;;;;;4.93;1.73;;;;;;;;;;4992928;28;20419;-72
2023/10/28 10:16:55;;;;;;;4.00;1.60;;;;;;;;;;4993106;28;20857;-73
2023/10/28 10:19:24;;;;;;;3.37;1.70;;;;;;;;;;4992583;28;20422;-73
2023/10/28 10:21:53;;;;;;;5.50;1.80;;;;;;;;;;4993638;28;20438;-74
2023/10/28 10:24:20;;;;;;;3.97;1.60;;;;;;;;;;4989009;28;20498;-73
2023/10/28 10:26:56;;;;;;;4.17;1.97;;;;;;;;;;4988836;28;20424;-73
2023/10/28 10:29:22;;;;;;;3.13;1.53;;;;;;;;;;4992694;28;20898;-72
2023/10/28 10:31:51;;;;;;;5.70;2.40;;;;;;;;;;4992058;28;20470;-72
2023/10/28 10:34:31;;;;;;;5.70;1.67;;;;;;;;;;4992349;28;20407;-72
2023/10/28 10:36:57;;;;;;;11.40;2.60;;;;;;;;;;4992343;28;20411;-73
2023/10/28 10:39:23;;;;;;;3.43;1.83;;;;;;;;;;4996455;28;20445;-72
2023/10/28 10:41:50;;;;;;;4.60;2.07;;;;;;;;;;4996204;28;20435;-72
2023/10/28 10:44:22;;;;;;;2.50;1.70;;;;;;;;;;4996593;28;20462;-72
2023/10/28 10:46:48;;;;;;;8.40;2.20;;;;;;;;;;4996242;28;20411;-72
2023/10/28 10:49:14;;;;;;;3.10;1.90;;;;;;;;;;4996264;28;20411;-72
2023/10/28 10:51:41;;;;;;;19.57;2.47;;;;;;;;;;4996336;28;20514;-72
2023/10/28 10:54:07;;;;;;;6.13;1.93;;;;;;;;;;4995900;28;20886;-72
2023/10/28 10:56:34;;;;;;;7.43;3.37;;;;;;;;;;4995952;28;20431;-72
2023/10/28 10:59:00;;;;;;;5.87;1.67;;;;;;;;;;4995931;28;20411;-72
2023/10/28 11:01:26;;;;;;;6.97;1.90;;;;;;;;;;4995483;28;20545;-72
2023/10/28 11:03:52;;;;;;;6.23;1.97;;;;;;;;;;4995772;28;20451;-72
2023/10/28 11:06:19;;;;;;;6.00;1.83;;;;;;;;;;4995626;28;20918;-72
2023/10/28 11:08:47;;;;;;;7.10;2.17;;;;;;;;;;4995694;28;20410;-72
2023/10/28 11:11:13;;;;;;;12.33;2.37;;;;;;;;;;4995440;28;20427;-72
2023/10/28 11:13:39;;;;;;;8.03;2.43;;;;;;;;;;4995544;28;21026;-72
2023/10/28 11:16:07;;;;;;;6.87;2.50;;;;;;;;;;5005204;23;20588;-71
2023/10/28 11:18:33;;;;;;;8.73;2.77;;;;;;;;;;4983353;28;20774;-71
2023/10/28 11:20:59;;;;;;;11.50;2.70;;;;;;;;;;4966700;28;20415;-72
2023/10/28 11:23:26;;;;;;;11.53;3.03;;;;;;;;;;4965241;28;20470;-72
2023/10/28 11:25:52;;;;;;;10.03;3.60;;;;;;;;;;4962663;28;20443;-72
2023/10/28 11:28:18;;;;;;;6.53;2.20;;;;;;;;;;4981121;28;20499;-73
2023/10/28 11:30:53;;;;;;;5.50;1.90;;;;;;;;;;4980616;28;20412;-71
2023/10/28 11:33:19;;;;;;;7.00;2.90;;;;;;;;;;4979813;28;20941;-73
2023/10/28 11:35:50;;;;;;;10.43;3.53;;;;;;;;;;4978469;28;20440;-72
2023/10/28 11:38:16;;;;;;;13.90;4.20;;;;;;;;;;4977852;28;20416;-72
2023/10/28 11:40:42;;;;;;;14.50;3.77;;;;;;;;;;4976574;28;20434;-71
2023/10/28 11:43:09;;;;;;;8.90;2.87;;;;;;;;;;4976742;28;20466;-72
2023/10/28 11:45:35;;;;;;;5.97;3.30;;;;;;;;;;4976430;28;20431;-71
2023/10/28 11:48:00;;;;;;;12.13;3.10;;;;;;;;;;4976187;28;20416;-73
2023/10/28 11:50:27;;;;;;;9.70;3.47;;;;;;;;;;4975143;28;20482;-72
2023/10/28 11:52:53;;;;;;;8.20;2.50;;;;;;;;;;4958834;28;20432;-72
2023/10/28 11:55:19;;;;;;;10.23;2.80;;;;;;;;;;4976325;28;20779;-73
2023/10/28 11:57:47;;;;;;;9.27;2.47;;;;;;;;;;4976077;28;20419;-72
2023/10/28 12:00:14;;;;;;;10.00;3.00;;;;;;;;;;4975957;28;20500;-72
2023/10/28 12:02:41;;;;;;;9.20;3.83;;;;;;;;;;4975764;28;20490;-73
2023/10/28 12:05:07;;;;;;;13.33;4.67;;;;;;;;;;4975723;28;20986;-72
2023/10/28 12:07:33;;;;;;;11.63;4.07;;;;;;;;;;4975831;28;20451;-72
2023/10/28 12:09:59;;;;;;;13.80;4.67;;;;;;;;;;4975403;28;20506;-71
2023/10/28 12:12:25;;;;;;;14.57;3.17;;;;;;;;;;4976151;28;20562;-72
2023/10/28 12:14:51;;;;;;;7.83;2.60;;;;;;;;;;4976401;28;20459;-72
2023/10/28 12:17:17;;;;;;;10.20;2.50;;;;;;;;;;4975155;28;20530;-72
2023/10/28 12:19:43;;;;;;;6.20;2.50;;;;;;;;;;4975485;28;20494;-72
2023/10/28 12:22:09;;;;;;;5.90;3.17;;;;;;;;;;4957747;28;20439;-72
2023/10/28 12:24:35;;;;;;;7.23;3.00;;;;;;;;;;4976348;28;20558;-72
2023/10/28 12:27:01;;;;;;;12.37;3.00;;;;;;;;;;4982404;28;20459;-72
2023/10/28 12:29:27;;;;;;;13.60;3.37;;;;;;;;;;4977431;28;20419;-71
2023/10/28 12:31:53;;;;;;;9.03;2.93;;;;;;;;;;4975536;28;20438;-71
2023/10/28 12:34:19;;;;;;;8.50;3.77;;;;;;;;;;4975999;28;20435;-72
2023/10/28 12:36:47;;;;;;;8.73;3.20;;;;;;;;;;4975311;28;20925;-72
2023/10/28 12:39:16;;;;;;;11.33;3.03;;;;;;;;;;4977059;28;20419;-73
2023/10/28 12:41:43;;;;;;;4.83;3.10;;;;;;;;;;4987712;28;20416;-72
2023/10/28 12:44:09;;;;;;;12.53;3.77;;;;;;;;;;4988735;28;20482;-72
2023/10/28 12:46:35;;;;;;;6.40;2.67;;;;;;;;;;4989518;28;20760;-72
2023/10/28 12:49:01;;;;;;;9.40;4.00;;;;;;;;;;4972043;28;20424;-71
2023/10/28 12:51:28;;;;;;;11.10;3.07;;;;;;;;;;4984053;28;20408;-71
2023/10/28 12:53:57;;;;;;;7.90;3.03;;;;;;;;;;4986728;28;20784;-72
2023/10/28 12:56:23;;;;;;;11.73;3.13;;;;;;;;;;4983367;28;20439;-71
2023/10/28 12:58:49;;;;;;;9.60;4.43;;;;;;;;;;4979901;28;20927;-72
2023/10/28 13:01:15;;;;;;;6.43;3.03;;;;;;;;;;4980434;28;20827;-72
2023/10/28 13:03:41;;;;;;;11.47;2.63;;;;;;;;;;4980194;28;20877;-72
2023/10/28 13:06:06;;;;;;;7.57;3.87;;;;;;;;;;4961913;28;20478;-72
2023/10/28 13:08:32;;;;;;;15.80;3.97;;;;;;;;;;4979288;28;20412;-71
2023/10/28 13:10:59;;;;;;;8.57;2.93;;;;;;;;;;4978846;28;20766;-71
2023/10/28 13:13:25;;;;;;;10.33;2.87;;;;;;;;;;4961151;28;20480;-72
2023/10/28 13:15:51;;;;;;;7.50;2.40;;;;;;;;;;4977707;28;20471;-71
2023/10/28 13:18:17;;;;;;;5.70;2.53;;;;;;;;;;4978991;28;20431;-72
2023/10/28 13:20:43;;;;;;;8.57;2.90;;;;;;;;;;4978663;28;20428;-73
2023/10/28 13:23:10;;;;;;;5.30;2.27;;;;;;;;;;4978852;28;20473;-72
2023/10/28 13:25:36;;;;;;;11.13;3.47;;;;;;;;;;4961495;28;20961;-73
2023/10/28 13:28:02;;;;;;;8.03;3.50;;;;;;;;;;4978955;28;20491;-72
2023/10/28 13:30:28;;;;;;;13.40;3.60;;;;;;;;;;4978677;28;20446;-72
2023/10/28 13:32:54;;;;;;;10.37;3.60;;;;;;;;;;4978402;28;20404;-72
2023/10/28 13:35:20;;;;;;;11.00;2.90;;;;;;;;;;4978005;28;20515;-72
2023/10/28 13:37:47;;;;;;;4.37;2.33;;;;;;;;;;4977460;28;20432;-72
2023/10/28 13:40:13;;;;;;;6.27;2.30;;;;;;;;;;4976675;28;20970;-71
2023/10/28 13:42:39;;;;;;;6.73;2.57;;;;;;;;;;4978828;28;20413;-71
2023/10/28 13:45:07;;;;;;;7.80;2.67;;;;;;;;;;4979329;28;20428;-72
2023/10/28 13:47:34;;;;;;;9.60;2.63;;;;;;;;;;4978659;28;20886;-72
2023/10/28 13:50:02;;;;;;;9.83;3.43;;;;;;;;;;4977361;28;20419;-71
2023/10/28 13:52:28;;;;;;;6.73;2.83;;;;;;;;;;4978890;28;20404;-72
2023/10/28 13:54:54;;;;;;;7.53;3.30;;;;;;;;;;4956690;28;20436;-72
2023/10/28 13:57:20;;;;;;;9.73;3.10;;;;;;;;;;4974018;28;20850;-71
2023/10/28 13:59:46;;;;;;;10.10;3.30;;;;;;;;;;4973626;28;20439;-72
2023/10/28 14:02:12;;;;;;;8.80;2.57;;;;;;;;;;4973519;28;20412;-72
2023/10/28 14:04:41;;;;;;;5.87;3.03;;;;;;;;;;4973978;28;20562;-72
2023/10/28 14:07:07;;;;;;;8.10;3.57;;;;;;;;;;4973694;28;20420;-72
2023/10/28 14:09:33;;;;;;;8.73;3.00;;;;;;;;;;4973848;28;20909;-71
2023/10/28 14:11:59;;;;;;;12.93;4.00;;;;;;;;;;4973372;28;20411;-72
2023/10/28 14:14:25;;;;;;;9.20;3.33;;;;;;;;;;4973693;28;20444;-72
2023/10/28 14:16:52;;;;;;;12.90;4.13;;;;;;;;;;4973602;28;20427;-71
2023/10/28 14:19:18;;;;;;;13.20;4.03;;;;;;;;;;4973850;28;20835;-71
2023/10/28 14:21:44;;;;;;;14.00;4.37;;;;;;;;;;4973431;28;20423;-72
2023/10/28 14:24:13;;;;;;;5.03;3.13;;;;;;;;;;4973503;28;20558;-72
2023/10/28 14:26:39;;;;;;;10.40;3.80;;;;;;;;;;4973712;28;20408;-72
2023/10/28 14:29:05;;;;;;;13.20;6.03;;;;;;;;;;4973527;28;20408;-72
2023/10/28 14:31:31;;;;;;;14.13;5.57;;;;;;;;;;4973253;28;20435;-71
2023/10/28 14:33:57;;;;;;;10.80;3.43;;;;;;;;;;4973425;28;20416;-72
2023/10/28 14:36:23;;;;;;;8.83;3.53;;;;;;;;;;4973131;28;20431;-71
2023/10/28 14:38:49;;;;;;;7.73;3.33;;;;;;;;;;4973387;28;20420;-72
2023/10/28 14:41:15;;;;;;;10.30;2.90;;;;;;;;;;4955845;28;20776;-73
2023/10/28 14:43:41;;;;;;;4.43;2.50;;;;;;;;;;4973436;28;20559;-72
2023/10/28 14:46:09;;;;;;;5.77;2.90;;;;;;;;;;4956008;28;20467;-72
2023/10/28 14:48:35;;;;;;;5.30;2.17;;;;;;;;;;4973412;28;20407;-71
2023/10/28 14:51:01;;;;;;;4.50;2.67;;;;;;;;;;4956028;28;20412;-72
2023/10/28 14:53:27;;;;;;;5.80;2.50;;;;;;;;;;4973810;28;20418;-71
2023/10/28 14:55:53;;;;;;;14.23;3.33;;;;;;;;;;4974065;28;20495;-72
2023/10/28 14:58:18;;;;;;;13.40;3.73;;;;;;;;;;4974751;28;20427;-73
2023/10/28 15:00:45;;;;;;;4.90;2.90;;;;;;;;;;4976578;28;20824;-71
2023/10/28 15:03:12;;;;;;;12.50;4.07;;;;;;;;;;4963753;28;20490;-72
2023/10/28 15:05:44;;;;;;;15.30;4.70;;;;;;;;;;4977007;28;20886;-72
2023/10/28 15:08:11;;;;;;;11.00;3.93;;;;;;;;;;4975651;28;21010;-72
2023/10/28 15:10:38;;;;;;;12.30;3.00;;;;;;;;;;4974732;28;20432;-71
2023/10/28 15:13:04;;;;;;;6.57;2.73;;;;;;;;;;4975874;28;20782;-72
2023/10/28 15:15:34;;;;;;;8.10;2.57;;;;;;;;;;4960367;28;20451;-72
2023/10/28 15:18:00;;;;;;;8.47;2.40;;;;;;;;;;4983004;28;20499;-71
2023/10/28 15:20:30;;;;;;;8.07;3.00;;;;;;;;;;4978278;28;20408;-71
2023/10/28 15:22:56;;;;;;;4.97;2.30;;;;;;;;;;4976440;28;20416;-73
2023/10/28 15:25:22;;;;;;;5.53;2.77;;;;;;;;;;4978877;28;20454;-72
2023/10/28 15:27:47;;;;;;;6.13;2.77;;;;;;;;;;4979659;28;20494;-71
2023/10/28 15:30:14;;;;;;;8.27;2.90;;;;;;;;;;4978630;28;20420;-73
2023/10/28 15:32:40;;;;;;;8.63;3.00;;;;;;;;;;4961749;28;20883;-72
2023/10/28 15:35:09;;;;;;;10.70;3.10;;;;;;;;;;4977500;28;20448;-71
2023/10/28 15:37:35;;;;;;;11.40;4.83;;;;;;;;;;4979321;28;20412;-72
2023/10/28 15:40:03;;;;;;;14.43;4.60;;;;;;;;;;4978378;28;20434;-72
2023/10/28 15:42:29;;;;;;;11.30;4.97;;;;;;;;;;4963359;28;20427;-72
2023/10/28 15:44:55;;;;;;;11.67;4.30;;;;;;;;;;4980266;28;20830;-73
2023/10/28 15:47:21;;;;;;;12.73;4.03;;;;;;;;;;4980121;28;20499;-72
2023/10/28 15:49:47;;;;;;;9.50;3.30;;;;;;;;;;4978554;28;20425;-72
2023/10/28 15:52:13;;;;;;;7.90;2.63;;;;;;;;;;4980343;28;20420;-72
2023/10/28 15:54:39;;;;;;;6.50;3.00;;;;;;;;;;4979916;28;20957;-72
2023/10/28 15:57:05;;;;;;;11.33;2.83;;;;;;;;;;4980328;28;20419;-72
2023/10/28 15:59:30;;;;;;;10.13;2.80;;;;;;;;;;4979159;28;20491;-72
2023/10/28 16:01:56;;;;;;;11.07;4.00;;;;;;;;;;4977650;28;20455;-72
2023/10/28 16:04:22;;;;;;;8.20;3.67;;;;;;;;;;4977604;28;21028;-72
2023/10/28 16:06:49;;;;;;;18.03;5.37;;;;;;;;;;4979198;28;20422;-73
2023/10/28 16:09:16;;;;;;;14.50;5.27;;;;;;;;;;4979064;28;20485;-72
2023/10/28 16:11:42;;;;;;;8.00;3.30;;;;;;;;;;4978385;28;20552;-72
2023/10/28 16:14:08;;;;;;;6.07;3.30;;;;;;;;;;4976763;28;20424;-72
2023/10/28 16:16:34;;;;;;;5.70;3.27;;;;;;;;;;4958548;28;20510;-72
2023/10/28 16:19:01;;;;;;;13.73;3.17;;;;;;;;;;4975748;28;20430;-72
2023/10/28 16:21:27;;;;;;;12.40;3.10;;;;;;;;;;4975476;28;20420;-71
2023/10/28 16:23:53;;;;;;;6.37;2.43;;;;;;;;;;4976121;28;20470;-72
2023/10/28 16:26:19;;;;;;;7.20;3.40;;;;;;;;;;4975605;28;20441;-72
2023/10/28 16:28:45;;;;;;;7.23;2.97;;;;;;;;;;4975439;28;20422;-71
2023/10/28 16:31:12;;;;;;;13.00;4.40;;;;;;;;;;4975370;28;20411;-73
2023/10/28 16:33:38;;;;;;;9.80;4.43;;;;;;;;;;4957725;28;20420;-72
2023/10/28 16:36:04;;;;;;;8.63;3.10;;;;;;;;;;4975114;28;20838;-71
2023/10/28 16:38:30;;;;;;;6.77;3.23;;;;;;;;;;4975630;28;20432;-71
2023/10/28 16:40:56;;;;;;;11.73;3.47;;;;;;;;;;4974806;28;20764;-72
2023/10/28 16:43:22;;;;;;;9.30;3.40;;;;;;;;;;4974908;28;20509;-72
2023/10/28 16:45:51;;;;;;;16.60;3.57;;;;;;;;;;4974963;28;20826;-72
2023/10/28 16:48:17;;;;;;;12.30;4.00;;;;;;;;;;4975055;28;20404;-72
2023/10/28 16:50:43;;;;;;;9.97;4.00;;;;;;;;;;4975184;28;20775;-72
2023/10/28 16:53:09;;;;;;;9.67;3.10;;;;;;;;;;4958386;28;20923;-71
2023/10/28 16:55:35;;;;;;;13.90;3.80;;;;;;;;;;4976009;28;20454;-72
2023/10/28 16:58:01;;;;;;;5.90;3.20;;;;;;;;;;4978231;28;20514;-72
2023/10/28 17:00:27;;;;;;;5.77;2.87;;;;;;;;;;4976384;28;20503;-72
2023/10/28 17:02:54;;;;;;;7.73;3.23;;;;;;;;;;4974935;28;20431;-71
2023/10/28 17:05:20;;;;;;;7.60;3.13;;;;;;;;;;4976141;28;20434;-71
2023/10/28 17:07:46;;;;;;;8.20;3.53;;;;;;;;;;4976870;28;20416;-71
2023/10/28 17:10:12;;;;;;;9.23;3.70;;;;;;;;;;4975828;28;20427;-71
2023/10/28 17:12:39;;;;;;;42.63;12.80;;;;;;;;;;4976481;28;20428;-72
2023/10/28 17:15:06;;;;;;;23.13;9.03;;;;;;;;;;4973005;23;20562;-72
2023/10/28 17:17:32;;;;;;;14.17;6.20;;;;;;;;;;4954805;29;20405;-71
2023/10/28 17:19:58;;;;;;;11.00;4.80;;;;;;;;;;4954512;29;20761;-71
2023/10/28 17:22:24;;;;;;;12.60;4.20;;;;;;;;;;4954843;29;20990;-71
2023/10/28 17:24:50;;;;;;;11.77;3.80;;;;;;;;;;4954461;29;20468;-71
2023/10/28 17:27:23;;;;;;;9.07;4.23;;;;;;;;;;4954700;29;20468;-71
2023/10/28 17:29:49;;;;;;;9.60;4.10;;;;;;;;;;4954126;29;20523;-72
2023/10/28 17:32:15;;;;;;;16.10;5.60;;;;;;;;;;4954587;29;20411;-71
2023/10/28 17:34:42;;;;;;;15.53;6.97;;;;;;;;;;4954535;29;20433;-72
2023/10/28 17:37:08;;;;;;;12.73;5.80;;;;;;;;;;4954557;29;20427;-71
2023/10/28 17:39:35;;;;;;;18.43;6.40;;;;;;;;;;4954150;29;20476;-71
2023/10/28 17:42:01;;;;;;;11.97;6.37;;;;;;;;;;4954098;29;20405;-71
2023/10/28 17:44:26;;;;;;;13.43;5.10;;;;;;;;;;4954357;29;20468;-70
2023/10/28 17:46:53;;;;;;;9.07;4.00;;;;;;;;;;4953977;28;20463;-71
2023/10/28 17:49:18;;;;;;;8.47;3.73;;;;;;;;;;4953994;29;20413;-71
2023/10/28 17:51:44;;;;;;;17.73;3.43;;;;;;;;;;4954262;29;20925;-71
2023/10/28 17:54:11;;;;;;;7.63;3.80;;;;;;;;;;4954073;29;21019;-72
2023/10/28 17:56:37;;;;;;;9.60;3.70;;;;;;;;;;4953675;29;20437;-72
2023/10/28 17:59:03;;;;;;;15.43;4.23;;;;;;;;;;4954097;29;20401;-71
2023/10/28 18:01:29;;;;;;;8.63;4.13;;;;;;;;;;4953626;29;20435;-71
2023/10/28 18:03:55;;;;;;;13.07;5.63;;;;;;;;;;4953910;29;20464;-71
2023/10/28 18:06:21;;;;;;;11.33;5.70;;;;;;;;;;4953841;29;20433;-71
2023/10/28 18:08:47;;;;;;;13.07;4.70;;;;;;;;;;4953820;29;20409;-71
2023/10/28 18:11:15;;;;;;;7.13;4.17;;;;;;;;;;4953427;29;20509;-71
2023/10/28 18:13:43;;;;;;;13.20;4.03;;;;;;;;;;4953940;29;20412;-71
2023/10/28 18:16:09;;;;;;;7.40;4.40;;;;;;;;;;4953595;29;20596;-71
2023/10/28 18:18:37;;;;;;;11.50;4.37;;;;;;;;;;4953849;29;20456;-72
2023/10/28 18:21:03;;;;;;;8.50;3.50;;;;;;;;;;4953246;29;20793;-72
2023/10/28 18:23:31;;;;;;;10.70;4.23;;;;;;;;;;4953400;29;20822;-72
2023/10/28 18:25:59;;;;;;;14.73;4.80;;;;;;;;;;4953516;29;20429;-71
2023/10/28 18:28:27;;;;;;;14.23;7.40;;;;;;;;;;4953706;29;20409;-71
2023/10/28 18:30:53;;;;;;;14.70;5.90;;;;;;;;;;4953124;29;20960;-72
2023/10/28 18:33:19;;;;;;;15.17;5.10;;;;;;;;;;4953197;29;20463;-72
2023/10/28 18:35:45;;;;;;;22.80;8.40;;;;;;;;;;4953434;29;20437;-72
2023/10/28 18:38:11;;;;;;;19.83;6.70;;;;;;;;;;4953391;29;20972;-72
2023/10/28 18:40:41;;;;;;;20.87;7.00;;;;;;;;;;4953321;29;20423;-72
2023/10/28 18:43:07;;;;;;;15.57;5.90;;;;;;;;;;4953104;29;20765;-72
2023/10/28 18:45:35;;;;;;;16.97;6.87;;;;;;;;;;4953428;29;20436;-71
2023/10/28 18:48:01;;;;;;;16.10;6.73;;;;;;;;;;4953482;29;20405;-72
2023/10/28 18:50:28;;;;;;;17.50;8.03;;;;;;;;;;4953350;29;20491;-72
2023/10/28 18:52:54;;;;;;;19.50;5.97;;;;;;;;;;4953081;29;20435;-72
2023/10/28 18:55:20;;;;;;;16.40;6.50;;;;;;;;;;4953466;29;20429;-71
2023/10/28 18:57:46;;;;;;;19.30;8.07;;;;;;;;;;4953518;28;20413;-72
2023/10/28 19:00:14;;;;;;;16.40;7.60;;;;;;;;;;4956214;29;20412;-71
2023/10/28 19:02:40;;;;;;;23.60;7.33;;;;;;;;;;4939955;29;20483;-71
2023/10/28 19:05:08;;;;;;;17.33;6.43;;;;;;;;;;4957205;29;20837;-71
2023/10/28 19:07:34;;;;;;;15.40;6.50;;;;;;;;;;4939624;29;20432;-72
2023/10/28 19:10:02;;;;;;;11.63;5.77;;;;;;;;;;4956805;29;20417;-72
2023/10/28 19:12:28;;;;;;;12.07;6.53;;;;;;;;;;4956729;29;20435;-70
2023/10/28 19:14:54;;;;;;;15.77;5.87;;;;;;;;;;4956786;29;20807;-71
2023/10/28 19:17:20;;;;;;;10.10;6.17;;;;;;;;;;4957120;29;20420;-70
2023/10/28 19:19:48;;;;;;;13.23;6.60;;;;;;;;;;4956674;29;20432;-70
2023/10/28 19:22:15;;;;;;;12.73;6.03;;;;;;;;;;4956624;29;20436;-70
2023/10/28 19:24:41;;;;;;;16.47;6.83;;;;;;;;;;4956349;29;20464;-71
2023/10/28 19:27:07;;;;;;;18.13;6.20;;;;;;;;;;4956563;29;20419;-70
2023/10/28 19:29:32;;;;;;;14.60;7.33;;;;;;;;;;4957137;29;20408;-70
2023/10/28 19:31:59;;;;;;;13.90;5.73;;;;;;;;;;4956305;29;20424;-72
2023/10/28 19:34:24;;;;;;;14.23;6.00;;;;;;;;;;4939159;29;20867;-71